Incourt, Belgium
Current Conditions -  °F | °C
As of 9:25 PM on Thursday 27 Nov 2014 (Local Time) from EBBE Reporting Station
Broken Clouds Broken Clouds  
Wind Chill:   Ceiling: 3400
Heat Index:   Visibility: 6mi
Dew Point:   Wind: 5mph
Humidity: 93%   Direction: 110°ESE
Pressure: 29.68"   Gusts: NA
Location:  50.69°N, 4.8°E
Report Text: EBBE 272025Z AUTO 11004KT 9999 FEW029/// BKN034/// 09/08 Q1005 BLU
Loading
Personal Weather Stations






























Interactive Weather Map New forecast layout! Learn more

10-Day Weather Forecast

Advertisements
Track Severe Weather on mobile